createdAt,value
2017-11-09T00:01:13.663Z,41.17
2017-11-09T00:03:46.913Z,41.83
2017-11-09T00:06:20.093Z,41.73
2017-11-09T00:08:47.558Z,43.57
2017-11-09T00:11:15.017Z,43.10
2017-11-09T00:13:42.500Z,43.20
2017-11-09T00:16:10.747Z,40.47
2017-11-09T00:18:38.345Z,43.33
2017-11-09T00:21:05.838Z,43.07
2017-11-09T00:23:33.309Z,41.33
2017-11-09T00:26:00.786Z,45.40
2017-11-09T00:28:28.883Z,42.23
2017-11-09T00:30:57.123Z,42.53
2017-11-09T00:33:24.614Z,43.50
2017-11-09T00:35:52.849Z,41.53
2017-11-09T00:38:20.376Z,42.00
2017-11-09T00:40:47.920Z,43.67
2017-11-09T00:43:16.147Z,39.90
2017-11-09T00:45:43.696Z,40.20
2017-11-09T00:48:11.168Z,38.77
2017-11-09T00:50:39.467Z,40.03
2017-11-09T00:53:07.698Z,38.87
2017-11-09T00:55:35.167Z,37.10
2017-11-09T00:58:02.849Z,40.47
2017-11-09T01:00:31.172Z,41.27
2017-11-09T01:02:58.631Z,40.30
2017-11-09T01:05:26.140Z,38.30
2017-11-09T01:07:54.377Z,39.87
2017-11-09T01:10:21.841Z,39.57
2017-11-09T01:12:49.310Z,40.50
2017-11-09T01:15:16.793Z,39.07
2017-11-09T01:17:45.030Z,38.60
2017-11-09T01:20:12.586Z,39.30
2017-11-09T01:22:40.038Z,38.40
2017-11-09T01:25:07.530Z,38.57
2017-11-09T01:27:35.007Z,37.67
2017-11-09T01:30:03.286Z,40.73
2017-11-09T01:32:31.534Z,39.50
2017-11-09T01:34:59.095Z,39.63
2017-11-09T01:37:26.558Z,39.47
2017-11-09T01:39:54.048Z,38.50
2017-11-09T01:42:21.519Z,38.03
2017-11-09T01:44:48.994Z,36.53
2017-11-09T01:47:16.453Z,36.57
2017-11-09T01:49:43.933Z,37.80
2017-11-09T01:52:11.405Z,37.53
2017-11-09T01:54:39.030Z,40.20
2017-11-09T01:57:06.527Z,40.00
2017-11-09T01:59:34.769Z,39.67
2017-11-09T02:02:02.242Z,41.80
2017-11-09T02:04:29.750Z,38.47
2017-11-09T02:06:57.330Z,37.83
2017-11-09T02:09:24.790Z,38.20
2017-11-09T02:11:52.389Z,39.27
2017-11-09T02:14:20.623Z,39.83
2017-11-09T02:16:48.099Z,40.27
2017-11-09T02:19:15.556Z,40.10
2017-11-09T02:21:43.034Z,39.47
2017-11-09T02:24:11.296Z,37.00
2017-11-09T02:26:38.937Z,39.07
2017-11-09T02:29:06.527Z,37.70
2017-11-09T02:31:34.185Z,39.00
2017-11-09T02:34:01.801Z,39.67
2017-11-09T02:36:29.301Z,38.10
2017-11-09T02:38:56.924Z,42.70
2017-11-09T02:41:24.507Z,39.20
2017-11-09T02:43:51.984Z,38.73
2017-11-09T02:46:19.530Z,40.97
2017-11-09T02:48:47.017Z,38.70
2017-11-09T02:51:15.247Z,37.33
2017-11-09T02:53:42.732Z,40.37
2017-11-09T02:56:10.995Z,40.10
2017-11-09T02:58:38.480Z,39.30
2017-11-09T03:01:06.732Z,41.77
2017-11-09T03:03:34.194Z,38.67
2017-11-09T03:06:03.170Z,39.37
2017-11-09T03:08:30.647Z,42.30
2017-11-09T03:10:58.909Z,40.27
2017-11-09T03:13:26.378Z,40.40
2017-11-09T03:15:54.613Z,39.10
2017-11-09T03:18:26.218Z,41.20
2017-11-09T03:20:54.448Z,39.33
2017-11-09T03:23:21.921Z,38.63
2017-11-09T03:25:49.384Z,39.57
2017-11-09T03:28:16.834Z,39.57
2017-11-09T03:30:44.322Z,38.40
2017-11-09T03:33:12.575Z,43.50
2017-11-09T03:35:40.237Z,41.20
2017-11-09T03:38:07.778Z,41.03
2017-11-09T03:40:35.462Z,39.33
2017-11-09T03:43:03.715Z,39.93
2017-11-09T03:45:31.194Z,39.27
2017-11-09T03:47:59.417Z,41.73
2017-11-09T03:50:26.901Z,40.40
2017-11-09T03:52:54.375Z,40.67
2017-11-09T03:55:21.864Z,39.67
2017-11-09T03:57:49.375Z,40.43
2017-11-09T04:00:16.859Z,38.60
2017-11-09T04:02:45.093Z,38.43
2017-11-09T04:05:12.574Z,41.33
2017-11-09T04:07:40.036Z,39.63
2017-11-09T04:10:07.510Z,43.27
2017-11-09T04:12:35.752Z,41.90
2017-11-09T04:15:03.246Z,39.40
2017-11-09T04:17:31.489Z,40.07
2017-11-09T04:19:58.962Z,40.30
2017-11-09T04:22:26.426Z,38.67
2017-11-09T04:24:53.980Z,38.27
2017-11-09T04:27:21.449Z,38.80
2017-11-09T04:29:49.811Z,40.87
2017-11-09T04:32:18.028Z,41.47
2017-11-09T04:34:45.494Z,40.53
2017-11-09T04:37:12.954Z,39.20
2017-11-09T04:39:40.485Z,39.77
2017-11-09T04:42:08.181Z,42.70
2017-11-09T04:44:35.644Z,41.53
2017-11-09T04:47:03.118Z,39.40
2017-11-09T04:49:30.905Z,41.03
2017-11-09T04:51:58.373Z,42.30
2017-11-09T04:54:27.201Z,42.13
2017-11-09T04:56:54.756Z,40.80
2017-11-09T04:59:22.213Z,41.10
2017-11-09T05:01:49.690Z,42.43
2017-11-09T05:04:17.165Z,41.90
2017-11-09T05:06:44.641Z,39.77
2017-11-09T05:09:12.862Z,38.97
2017-11-09T05:11:40.346Z,39.00
2017-11-09T05:14:07.816Z,41.67
2017-11-09T05:16:35.275Z,38.63
2017-11-09T05:19:03.516Z,40.77
2017-11-09T05:21:30.982Z,39.60
2017-11-09T05:23:58.460Z,40.03
2017-11-09T05:26:25.917Z,40.63
2017-11-09T05:28:53.478Z,42.47
2017-11-09T05:31:20.931Z,40.20
2017-11-09T05:33:48.556Z,41.50
2017-11-09T05:36:16.073Z,41.83
2017-11-09T05:38:45.772Z,41.90
2017-11-09T05:41:14.016Z,39.27
2017-11-09T05:43:41.486Z,42.63
2017-11-09T05:46:09.146Z,40.90
2017-11-09T05:48:36.702Z,41.77
2017-11-09T05:51:04.166Z,38.27
2017-11-09T05:53:31.636Z,42.13
2017-11-09T05:55:59.870Z,43.57
2017-11-09T05:58:27.342Z,43.67
2017-11-09T06:00:55.026Z,44.40
2017-11-09T06:03:23.310Z,48.20
2017-11-09T06:05:51.665Z,45.60
2017-11-09T06:08:19.151Z,42.30
2017-11-09T06:10:47.568Z,42.10
2017-11-09T06:13:15.031Z,44.53
2017-11-09T06:15:42.527Z,45.13
2017-11-09T06:18:09.988Z,44.20
2017-11-09T06:20:37.642Z,42.10
2017-11-09T06:23:05.881Z,42.70
2017-11-09T06:25:33.503Z,41.27
2017-11-09T06:28:01.762Z,43.90
2017-11-09T06:30:30.159Z,41.83
2017-11-09T06:32:57.682Z,42.97
2017-11-09T06:35:25.156Z,42.37
2017-11-09T06:37:52.862Z,42.30
2017-11-09T06:40:20.326Z,43.40
2017-11-09T06:42:47.806Z,42.60
2017-11-09T06:45:15.385Z,44.70
2017-11-09T06:47:42.869Z,42.57
2017-11-09T06:50:11.125Z,44.40
2017-11-09T06:52:38.582Z,42.40
2017-11-09T06:55:06.853Z,43.23
2017-11-09T06:57:35.807Z,44.57
2017-11-09T07:00:03.694Z,43.60
2017-11-09T07:02:31.169Z,43.57
2017-11-09T07:04:58.633Z,42.97
2017-11-09T07:07:26.937Z,44.30
2017-11-09T07:09:54.474Z,43.40
2017-11-09T07:12:22.822Z,44.73
2017-11-09T07:14:50.299Z,42.83
2017-11-09T07:17:18.546Z,43.60
2017-11-09T07:19:46.018Z,44.80
2017-11-09T07:22:13.489Z,45.17
2017-11-09T07:24:41.830Z,43.57
2017-11-09T07:27:09.361Z,44.23
2017-11-09T07:29:38.709Z,42.53
2017-11-09T07:32:06.189Z,42.60
2017-11-09T07:34:34.434Z,43.00
2017-11-09T07:37:01.908Z,44.70
2017-11-09T07:39:29.391Z,44.60
2017-11-09T07:41:57.005Z,41.13
2017-11-09T07:44:26.514Z,41.93
2017-11-09T07:46:54.003Z,41.40
2017-11-09T07:49:22.239Z,40.57
2017-11-09T07:51:49.718Z,42.80
2017-11-09T07:54:17.206Z,42.23
2017-11-09T07:56:44.695Z,43.77
2017-11-09T07:59:12.251Z,41.93
2017-11-09T08:01:39.730Z,38.57
2017-11-09T08:04:07.330Z,40.30
2017-11-09T08:06:35.614Z,38.73
2017-11-09T08:09:03.126Z,37.67
2017-11-09T08:11:30.616Z,39.63
2017-11-09T08:13:58.153Z,38.77
2017-11-09T08:16:25.655Z,39.60
2017-11-09T08:18:53.120Z,38.33
2017-11-09T08:21:20.578Z,37.67
2017-11-09T08:23:48.071Z,39.37
2017-11-09T08:26:18.462Z,35.73
2017-11-09T08:28:52.398Z,36.27
2017-11-09T08:31:23.870Z,37.57
2017-11-09T08:33:51.347Z,37.27
2017-11-09T08:36:19.591Z,37.53
2017-11-09T08:38:47.183Z,36.57
2017-11-09T08:41:15.440Z,36.17
2017-11-09T08:43:43.691Z,36.17
2017-11-09T08:46:11.168Z,36.07
2017-11-09T08:48:39.429Z,34.07
2017-11-09T08:51:06.948Z,36.90
2017-11-09T08:53:34.520Z,38.07
2017-11-09T08:56:02.134Z,37.20
2017-11-09T08:58:30.389Z,35.70
2017-11-09T09:00:57.904Z,36.07
2017-11-09T09:03:25.415Z,36.33
2017-11-09T09:05:52.877Z,34.50
2017-11-09T09:08:21.145Z,35.00
2017-11-09T09:10:48.681Z,36.93
2017-11-09T09:13:16.142Z,37.80
2017-11-09T09:15:43.906Z,36.57
2017-11-09T09:18:11.377Z,34.50
2017-11-09T09:20:39.327Z,37.93
2017-11-09T09:23:06.787Z,36.63
2017-11-09T09:25:54.052Z,36.87
2017-11-09T09:28:25.736Z,36.60
2017-11-09T09:30:53.992Z,35.60
2017-11-09T09:33:24.834Z,38.63
2017-11-09T09:35:56.689Z,37.30
2017-11-09T09:38:32.556Z,37.67
2017-11-09T09:41:00.040Z,35.60
2017-11-09T09:43:27.669Z,35.93
2017-11-09T09:45:55.218Z,37.50
2017-11-09T09:48:22.888Z,39.40
2017-11-09T09:50:50.393Z,38.13
2017-11-09T09:53:17.915Z,39.17
2017-11-09T09:55:45.466Z,37.90
2017-11-09T09:58:12.962Z,42.43
2017-11-09T10:00:40.530Z,41.27
2017-11-09T10:03:08.290Z,45.40
2017-11-09T10:05:35.814Z,43.93
2017-11-09T10:08:03.314Z,41.90
2017-11-09T10:10:31.565Z,41.17
2017-11-09T10:12:59.063Z,42.90
2017-11-09T10:15:27.299Z,39.47
2017-11-09T10:17:54.770Z,39.60
2017-11-09T10:20:22.246Z,40.23
2017-11-09T10:22:50.478Z,38.50
2017-11-09T10:25:17.967Z,40.00
2017-11-09T10:27:45.487Z,40.27
2017-11-09T10:30:12.950Z,39.90
2017-11-09T10:32:40.482Z,40.00
2017-11-09T10:35:08.003Z,40.50
2017-11-09T10:37:35.524Z,37.57
2017-11-09T10:40:03.033Z,38.77
2017-11-09T10:42:31.303Z,39.83
2017-11-09T10:44:59.654Z,39.47
2017-11-09T10:47:27.148Z,41.77
2017-11-09T10:49:54.636Z,39.40
2017-11-09T10:52:22.139Z,41.63
2017-11-09T10:54:49.605Z,40.07
2017-11-09T10:57:17.618Z,40.07
2017-11-09T10:59:45.867Z,37.80
2017-11-09T11:02:13.326Z,40.47
2017-11-09T11:04:40.810Z,38.40
2017-11-09T11:07:08.416Z,38.43
2017-11-09T11:09:36.034Z,37.10
2017-11-09T11:12:03.675Z,38.03
2017-11-09T11:14:31.211Z,37.50
2017-11-09T11:16:59.479Z,35.23
2017-11-09T11:19:27.739Z,36.60
2017-11-09T11:21:55.227Z,34.10
2017-11-09T11:24:22.738Z,34.77
2017-11-09T11:26:50.223Z,36.47
2017-11-09T11:29:18.501Z,36.43
2017-11-09T11:31:45.966Z,34.03
2017-11-09T11:34:14.224Z,37.20
2017-11-09T11:36:42.511Z,34.03
2017-11-09T11:39:10.793Z,36.53
2017-11-09T11:41:39.157Z,36.33
2017-11-09T11:44:06.668Z,35.60
2017-11-09T11:46:34.195Z,35.60
2017-11-09T11:49:02.513Z,37.10
2017-11-09T11:51:30.998Z,35.40
2017-11-09T11:53:58.732Z,33.03
2017-11-09T11:56:26.247Z,32.60
2017-11-09T11:58:53.734Z,30.90
2017-11-09T12:01:21.216Z,30.53
2017-11-09T12:03:48.710Z,32.20
2017-11-09T12:06:16.320Z,31.80
2017-11-09T12:08:43.795Z,31.60
2017-11-09T12:11:11.335Z,32.30
2017-11-09T12:13:38.886Z,32.13
2017-11-09T12:16:08.584Z,32.77
2017-11-09T12:18:36.075Z,31.23
2017-11-09T12:21:03.579Z,31.27
2017-11-09T12:23:31.063Z,31.87
2017-11-09T12:25:59.307Z,32.63
2017-11-09T12:28:27.642Z,31.57
2017-11-09T12:31:09.951Z,32.23
2017-11-09T12:33:37.487Z,32.50
2017-11-09T12:36:05.037Z,31.30
2017-11-09T12:38:33.266Z,31.90
2017-11-09T12:41:01.318Z,30.30
2017-11-09T12:43:28.929Z,30.33
2017-11-09T12:45:57.165Z,32.27
2017-11-09T12:48:24.646Z,34.03
2017-11-09T12:50:52.123Z,32.33
2017-11-09T12:53:20.363Z,32.80
2017-11-09T12:55:47.846Z,31.00
2017-11-09T13:00:49.302Z,32.40
2017-11-09T13:03:18.291Z,31.90
2017-11-09T13:05:45.773Z,33.30
2017-11-09T13:08:14.046Z,30.70
2017-11-09T13:10:42.278Z,30.43
2017-11-09T13:13:09.741Z,29.10
2017-11-09T13:15:37.223Z,30.13
2017-11-09T13:18:04.697Z,29.17
2017-11-09T13:20:32.187Z,31.50
2017-11-09T13:22:59.740Z,29.17
2017-11-09T13:25:27.223Z,29.60
2017-11-09T13:27:54.722Z,28.50
2017-11-09T13:30:22.965Z,26.70
2017-11-09T13:32:51.013Z,27.87
2017-11-09T13:35:18.592Z,26.90
2017-11-09T13:37:46.063Z,28.10
2017-11-09T13:40:13.524Z,30.10
2017-11-09T13:42:41.003Z,29.27
2017-11-09T13:45:08.470Z,32.20
2017-11-09T13:47:35.937Z,28.50
2017-11-09T13:50:03.453Z,31.03
2017-11-09T13:52:30.916Z,29.47
2017-11-09T13:54:58.390Z,32.57
2017-11-09T13:57:26.628Z,31.80
2017-11-09T13:59:55.601Z,29.07
2017-11-09T14:02:23.120Z,32.50
2017-11-09T14:04:51.364Z,31.37
2017-11-09T14:07:18.854Z,32.83
2017-11-09T14:09:46.313Z,31.17
2017-11-09T14:12:13.915Z,33.90
2017-11-09T14:14:41.484Z,31.53
2017-11-09T14:17:09.081Z,30.87
2017-11-09T14:19:37.306Z,35.00
2017-11-09T14:22:04.774Z,30.93
2017-11-09T14:24:32.249Z,31.03
2017-11-09T14:27:02.970Z,31.90
2017-11-09T14:29:30.954Z,31.23
2017-11-09T14:31:58.440Z,33.00
2017-11-09T14:34:25.922Z,32.83
2017-11-09T14:36:53.514Z,32.20
2017-11-09T14:39:21.015Z,31.90
2017-11-09T14:41:48.496Z,29.93
2017-11-09T14:44:16.058Z,33.40
2017-11-09T14:46:45.324Z,31.93
2017-11-09T14:49:12.811Z,31.03
2017-11-09T14:51:40.299Z,32.07
2017-11-09T14:54:07.759Z,31.23
2017-11-09T14:56:35.282Z,31.93
2017-11-09T14:59:02.738Z,29.57
2017-11-09T15:01:30.217Z,28.93
2017-11-09T15:03:57.761Z,30.33
2017-11-09T15:06:25.323Z,30.67
2017-11-09T15:08:52.807Z,30.37
2017-11-09T15:11:20.866Z,31.93
2017-11-09T15:13:48.401Z,32.30
2017-11-09T15:16:15.880Z,31.07
2017-11-09T15:18:48.239Z,31.47
2017-11-09T15:21:15.721Z,32.03
2017-11-09T15:23:43.196Z,32.93
2017-11-09T15:26:11.443Z,32.00
2017-11-09T15:28:38.912Z,31.83
2017-11-09T15:31:07.217Z,33.70
2017-11-09T15:33:35.442Z,33.87
2017-11-09T15:36:08.986Z,31.70
2017-11-09T15:38:36.466Z,32.40
2017-11-09T15:41:03.952Z,31.87
2017-11-09T15:43:31.418Z,33.43
2017-11-09T15:45:59.802Z,32.63
2017-11-09T15:48:27.468Z,32.87
2017-11-09T15:50:55.011Z,32.87
2017-11-09T15:53:22.564Z,34.90
2017-11-09T15:55:50.064Z,32.10
2017-11-09T15:58:18.302Z,32.27
2017-11-09T16:00:45.765Z,35.00
2017-11-09T16:03:13.250Z,34.77
2017-11-09T16:05:41.526Z,32.30
2017-11-09T16:08:09.910Z,33.20
2017-11-09T16:10:38.162Z,32.93
2017-11-09T16:13:06.864Z,32.33
2017-11-09T16:15:35.100Z,31.93
2017-11-09T16:18:02.549Z,34.00
2017-11-09T16:20:31.806Z,31.13
2017-11-09T16:23:00.103Z,31.47
2017-11-09T16:25:27.609Z,32.27
2017-11-09T16:27:55.092Z,33.00
2017-11-09T16:30:24.009Z,33.97
2017-11-09T16:32:51.487Z,30.63
2017-11-09T16:35:18.961Z,34.10
2017-11-09T16:37:46.445Z,31.67
2017-11-09T16:40:14.675Z,31.93
2017-11-09T16:42:43.011Z,33.07
2017-11-09T16:45:10.494Z,30.63
2017-11-09T16:47:37.958Z,31.10
2017-11-09T16:50:05.461Z,32.33
2017-11-09T16:52:32.980Z,30.20
2017-11-09T16:55:00.548Z,30.57
2017-11-09T16:57:28.204Z,32.10
2017-11-09T16:59:55.722Z,31.83
2017-11-09T17:02:23.219Z,31.43
2017-11-09T17:04:50.705Z,30.40
2017-11-09T17:07:23.836Z,31.20
2017-11-09T17:09:51.343Z,31.10
2017-11-09T17:12:18.844Z,31.27
2017-11-09T17:14:48.880Z,29.13
2017-11-09T17:17:21.258Z,29.77
2017-11-09T17:19:48.726Z,31.00
2017-11-09T17:22:16.215Z,31.40
2017-11-09T17:24:43.711Z,30.73
2017-11-09T17:27:11.975Z,32.50
2017-11-09T17:29:40.225Z,31.53
2017-11-09T17:32:07.729Z,30.67
2017-11-09T17:34:35.293Z,31.30
2017-11-09T17:37:02.784Z,30.60
2017-11-09T17:39:30.254Z,30.27
2017-11-09T17:41:57.711Z,31.90
2017-11-09T17:44:25.203Z,31.50
2017-11-09T17:46:52.663Z,29.10
2017-11-09T17:49:20.163Z,32.07
2017-11-09T17:51:47.644Z,29.90
2017-11-09T17:54:15.239Z,30.43
2017-11-09T17:56:47.213Z,31.70
2017-11-09T17:59:14.697Z,32.40
2017-11-09T18:01:42.183Z,30.50
2017-11-09T18:04:09.686Z,30.67
2017-11-09T18:06:37.187Z,28.87
2017-11-09T18:09:04.703Z,30.60
2017-11-09T18:11:32.197Z,30.37
2017-11-09T18:13:59.717Z,28.90
2017-11-09T18:16:27.355Z,30.43
2017-11-09T18:18:54.950Z,31.10
2017-11-09T18:21:22.624Z,30.30
2017-11-09T18:23:50.863Z,30.00
2017-11-09T18:26:18.401Z,28.40
2017-11-09T18:28:46.685Z,30.40
2017-11-09T18:31:18.036Z,27.20
2017-11-09T18:33:45.473Z,30.37
2017-11-09T18:36:13.604Z,29.60
2017-11-09T18:38:41.090Z,29.17
2017-11-09T18:41:08.566Z,31.53
2017-11-09T18:43:36.844Z,29.87
2017-11-09T18:46:05.120Z,29.43
2017-11-09T18:48:33.406Z,29.13
2017-11-09T18:51:01.708Z,30.50
2017-11-09T18:53:29.185Z,30.20
2017-11-09T18:55:56.674Z,30.07
2017-11-09T18:58:24.257Z,29.53
2017-11-09T19:00:53.728Z,31.77
2017-11-09T19:03:21.222Z,28.60
2017-11-09T19:05:49.473Z,31.37
2017-11-09T19:08:17.735Z,32.00
2017-11-09T19:10:45.246Z,31.80
2017-11-09T19:13:12.730Z,31.87
2017-11-09T19:15:40.385Z,31.87
2017-11-09T19:18:07.969Z,30.00
2017-11-09T19:20:36.265Z,30.87
2017-11-09T19:23:04.552Z,31.13
2017-11-09T19:25:32.054Z,31.30
2017-11-09T19:27:59.530Z,31.40
2017-11-09T19:30:27.002Z,29.53
2017-11-09T19:32:55.381Z,33.17
2017-11-09T19:35:23.626Z,29.50
2017-11-09T19:37:51.112Z,30.67
2017-11-09T19:40:18.596Z,29.17
2017-11-09T19:42:46.825Z,30.90
2017-11-09T19:45:14.513Z,28.13
2017-11-09T19:47:41.994Z,29.17
2017-11-09T19:50:09.461Z,28.80
2017-11-09T19:52:36.943Z,27.87
2017-11-09T19:55:04.419Z,29.00
2017-11-09T19:57:31.910Z,30.03
2017-11-09T20:00:00.149Z,28.80
2017-11-09T20:02:27.644Z,28.27
2017-11-09T20:04:55.871Z,30.70
2017-11-09T20:07:23.370Z,28.30
2017-11-09T20:09:51.620Z,30.60
2017-11-09T20:12:19.095Z,30.37
2017-11-09T20:14:47.450Z,28.20
2017-11-09T20:17:15.703Z,29.40
2017-11-09T20:19:43.233Z,28.00
2017-11-09T20:22:10.693Z,28.90
2017-11-09T20:24:38.275Z,29.90
2017-11-09T20:27:05.735Z,27.20
2017-11-09T20:29:33.213Z,28.40
2017-11-09T20:32:00.697Z,28.37
2017-11-09T20:34:28.174Z,28.57
2017-11-09T20:36:55.649Z,28.60
2017-11-09T20:39:23.272Z,26.47
2017-11-09T20:41:51.515Z,27.97
2017-11-09T20:44:19.001Z,29.27
2017-11-09T20:46:46.500Z,29.53
2017-11-09T20:49:13.957Z,28.63
2017-11-09T20:51:41.438Z,29.20
2017-11-09T20:54:08.930Z,26.90
2017-11-09T20:56:37.199Z,28.17
2017-11-09T20:59:05.444Z,26.60
2017-11-09T21:01:32.938Z,27.83
2017-11-09T21:04:00.402Z,27.40
2017-11-09T21:06:27.886Z,27.63
2017-11-09T21:08:55.366Z,27.03
2017-11-09T21:11:23.349Z,26.80
2017-11-09T21:13:50.846Z,27.03
2017-11-09T21:16:19.124Z,25.53
2017-11-09T21:18:47.432Z,27.67
2017-11-09T21:21:14.894Z,27.83
2017-11-09T21:23:42.399Z,23.83
2017-11-09T21:26:09.915Z,24.07
2017-11-09T21:28:59.450Z,26.00
2017-11-09T21:31:29.111Z,25.07
2017-11-09T21:33:56.627Z,25.60
2017-11-09T21:36:35.390Z,23.90
2017-11-09T21:39:20.173Z,24.57
2017-11-09T21:41:53.057Z,23.03
2017-11-09T21:44:21.443Z,23.67
2017-11-09T21:46:53.868Z,23.60
2017-11-09T21:49:31.206Z,23.23
2017-11-09T21:52:00.990Z,23.67
2017-11-09T21:54:33.578Z,24.10
2017-11-09T21:57:08.740Z,25.87
2017-11-09T21:59:36.984Z,22.97
2017-11-09T22:02:05.544Z,24.00
2017-11-09T22:04:38.975Z,23.67
2017-11-09T22:07:10.501Z,22.70
2017-11-09T22:09:38.045Z,24.00
2017-11-09T22:12:06.946Z,21.37
2017-11-09T22:14:40.425Z,23.47
2017-11-09T22:17:09.184Z,21.97
2017-11-09T22:25:56.759Z,22.50
2017-11-09T22:28:24.811Z,21.90
2017-11-09T22:31:33.197Z,22.00
2017-11-09T22:34:03.672Z,20.60
2017-11-09T22:36:32.100Z,21.33
2017-11-09T22:39:14.657Z,21.17
2017-11-09T22:42:10.670Z,19.70
2017-11-09T22:45:05.541Z,20.60
2017-11-09T22:48:04.101Z,21.47
2017-11-09T22:54:03.896Z,21.40
2017-11-09T22:56:56.251Z,19.57
2017-11-09T22:59:38.642Z,20.70
2017-11-09T23:02:33.901Z,22.07
2017-11-09T23:05:26.581Z,20.87
2017-11-09T23:08:10.833Z,19.40
2017-11-09T23:10:53.982Z,21.10
2017-11-09T23:13:22.091Z,19.90
2017-11-09T23:15:49.934Z,20.77
2017-11-09T23:18:17.708Z,19.63
2017-11-09T23:20:46.067Z,21.03
2017-11-09T23:23:14.128Z,22.13
2017-11-09T23:25:42.252Z,20.33
2017-11-09T23:28:12.388Z,20.87
2017-11-09T23:30:39.945Z,21.53
2017-11-09T23:33:07.410Z,20.67
2017-11-09T23:35:34.934Z,22.53
2017-11-09T23:38:02.427Z,21.17
2017-11-09T23:40:29.914Z,22.87
2017-11-09T23:42:57.422Z,23.37
2017-11-09T23:45:24.893Z,23.83
2017-11-09T23:47:52.358Z,21.80
2017-11-09T23:50:19.850Z,22.53
2017-11-09T23:52:47.334Z,24.00
2017-11-09T23:55:14.806Z,23.87
2017-11-09T23:57:42.321Z,23.43
